Home   Weather   USA   Newport   Past weeks
Flag for USA

Past Weather in Newport, Oregon, USA — Yesterday and Last 2 Weeks

Currently: 50 °F. Overcast. (Weather station: Newport Municipal, USA). See more current weather

Past Weather in Newport — Graph

°F

Newport Temperature Yesterday

Maximum temperature yesterday: 48 °F (at 2:35 pm)
Minimum temperature yesterday: 41 °F (at 12:15 am)
Average temperature yesterday: 45 °F

High & Low Weather Summary for the Past Weeks

 TemperatureHumidityPressure
High79 °F (Apr 16, 3:15 pm)100% (Apr 5, 3:15 am)30.42 "Hg (Apr 5, 3:15 am)
Low30 °F (Apr 5, 5:35 am)14% (Apr 16, 6:15 pm)30.06 "Hg (Apr 15, 4:15 pm)
Average46 °F73%30.22 "Hg
* Reported Apr 4 11:15 am — Apr 19 11:35 am, Newport. Weather by CustomWeather, © 2021

Note: Actual official high and low records may vary slightly from our data, if they occured in-between our weather recording intervals... More about our weather records

Newport Weather History for the Previous 24 Hours

Scroll right to see more
 ConditionsComfort  
Time TempWeatherWind HumidityBarometerVisibility
11:35 am
Mon, Apr 19
50 °FOvercast.No wind82%30.30 "Hg10 mi
11:15 am50 °FOvercast.No wind82%30.30 "Hg10 mi
10:55 am46 °FLow clouds.No wind87%30.31 "Hg10 mi
10:35 am46 °FLow clouds.No wind87%30.31 "Hg10 mi
10:15 am46 °FLow clouds.No wind87%30.31 "Hg10 mi
9:55 am46 °FLow clouds.No wind87%30.31 "Hg10 mi
9:35 am45 °FLow clouds.No wind93%30.31 "Hg10 mi
8:55 am45 °FLow clouds.No wind93%30.29 "Hg10 mi
8:35 am45 °FLow clouds.No wind93%30.29 "Hg10 mi
8:15 am45 °FLow clouds.No wind93%30.28 "Hg10 mi
7:55 am45 °FLow clouds.No wind93%30.27 "Hg10 mi
7:35 am45 °FLow clouds.No wind93%30.28 "Hg10 mi
7:15 am43 °FLow clouds.No wind100%30.28 "Hg10 mi
6:55 am43 °FLow clouds.No wind100%30.28 "Hg7 mi
6:35 am43 °FLow clouds.No wind100%30.28 "Hg10 mi
6:15 am43 °FLow clouds.No wind93%30.27 "Hg10 mi
5:55 am43 °FLow clouds.No wind100%30.27 "Hg10 mi
5:35 am43 °FLow clouds.No wind100%30.27 "Hg10 mi
5:15 am43 °FLow clouds.No wind100%30.27 "Hg10 mi
4:55 am43 °FLow clouds.No wind100%30.28 "Hg10 mi
4:35 am43 °FLow clouds.No wind100%30.28 "Hg10 mi
4:15 am43 °FLow clouds.No wind100%30.28 "Hg10 mi
3:55 am43 °FLow clouds.No wind100%30.28 "Hg10 mi
3:35 am43 °FLow clouds.No wind100%30.28 "Hg10 mi
3:15 am43 °FLow clouds.No wind100%30.27 "Hg10 mi
2:55 am43 °FLow clouds.No wind100%30.27 "Hg10 mi
2:35 am43 °FLow clouds.No wind100%30.27 "Hg10 mi
2:15 am43 °FLow clouds.No wind100%30.27 "Hg10 mi
1:55 am43 °FLow clouds.No wind100%30.27 "Hg10 mi
1:35 am43 °FLow clouds.No wind100%30.27 "Hg10 mi
12:55 am43 °FLow clouds.No wind100%30.26 "Hg10 mi
12:35 am45 °FLow clouds.No wind93%30.27 "Hg10 mi
12:15 am45 °FLow clouds.No wind93%30.26 "Hg10 mi
11:55 pm
Sun, Apr 18
45 °FLow clouds.No wind93%30.26 "Hg10 mi
11:35 pm45 °FLow clouds.No wind93%30.26 "Hg10 mi
11:15 pm45 °FLow clouds.No wind93%30.26 "Hg10 mi
10:55 pm45 °FLow clouds.No wind93%30.26 "Hg10 mi
10:35 pm45 °FLow clouds.No wind93%30.26 "Hg10 mi
10:15 pm45 °FLow clouds.No wind93%30.26 "Hg10 mi
9:55 pm45 °FLow clouds.No wind93%30.26 "Hg10 mi
9:35 pm45 °FLow clouds.No wind93%30.25 "Hg10 mi
9:15 pm45 °FLow clouds.No wind93%30.25 "Hg10 mi
8:55 pm45 °FLow clouds.No wind93%30.24 "Hg10 mi
8:35 pm45 °FLow clouds.No wind93%30.24 "Hg10 mi
8:15 pm45 °FLow clouds.No wind100%30.23 "Hg10 mi
7:55 pm45 °FLow clouds.No wind100%30.23 "Hg10 mi
7:35 pm45 °FLow clouds.No wind93%30.22 "Hg10 mi
7:15 pm46 °FLow clouds.No wind87%30.22 "Hg10 mi
6:55 pm46 °FLow clouds.No wind93%30.23 "Hg10 mi
6:35 pm46 °FLow clouds.No wind93%30.24 "Hg10 mi
6:15 pm46 °FLow clouds.No wind93%30.24 "Hg10 mi
5:55 pm46 °FLow clouds.No wind93%30.24 "Hg10 mi
5:35 pm46 °FLow clouds.No wind93%30.24 "Hg10 mi
4:55 pm46 °FLow clouds.No wind93%30.24 "Hg10 mi
4:35 pm46 °FLow clouds.No wind93%30.25 "Hg10 mi
4:15 pm46 °FLow clouds.No wind93%30.26 "Hg10 mi
3:55 pm46 °FLow clouds.No wind93%30.26 "Hg10 mi
3:35 pm46 °FLow clouds.No wind93%30.27 "Hg7 mi
3:15 pm46 °FLow clouds.No wind93%30.27 "Hg7 mi
2:55 pm48 °FLow clouds.No wind87%30.27 "Hg7 mi
2:35 pm48 °FLow clouds.No wind94%30.26 "Hg10 mi
2:15 pm46 °FLow clouds.No wind93%30.27 "Hg10 mi
1:55 pm46 °FLow clouds.8 mph93%30.27 "Hg10 mi
1:35 pm46 °FLow clouds.8 mph93%30.27 "Hg7 mi
12:55 pm46 °FLow clouds.3 mph93%30.27 "Hg7 mi
12:35 pm46 °FFog.10 mph93%30.27 "Hg2 mi
12:15 pm46 °FFog.8 mph93%30.26 "Hg2 mi
Weather by CustomWeather, © 2021

See weather overview